Time;durP1;ratioP1;P1;durP2;ratioP2;P2;SDS_P1;SDS_P2;PMS_P1;PMS_P2;Temp;Humidity;BMP_temperature;BMP_pressure;BME280_temperature;BME280_humidity;BME280_pressure;Samples;Min_cycle;Max_cycle;Signal;HPM_P1;HPM_P2
2023/07/07 00:02:49;;;;;;;6.97;3.03;;;;;;;20.76;100.00;100498.59;5587391;31;33786;-70
2023/07/07 00:05:52;;;;;;;6.47;3.17;;;;;;;20.78;100.00;100506.44;5587289;31;33803;-70
2023/07/07 00:08:55;;;;;;;6.20;3.17;;;;;;;20.84;100.00;100505.53;5586479;31;33850;-70
2023/07/07 00:11:59;;;;;;;9.05;3.75;;;;;;;20.70;100.00;100501.41;5586878;31;34256;-70
2023/07/07 00:15:02;;;;;;;6.37;3.22;;;;;;;20.71;100.00;100517.34;5587450;31;34438;-70
2023/07/07 00:18:05;;;;;;;7.40;3.35;;;;;;;20.75;100.00;100506.91;5587240;31;33566;-70
2023/07/07 00:21:08;;;;;;;6.97;3.20;;;;;;;20.77;100.00;100511.00;5587447;31;33848;-70
2023/07/07 00:24:11;;;;;;;5.53;3.25;;;;;;;20.82;100.00;100513.00;5587204;31;33735;-71
2023/07/07 00:27:14;;;;;;;6.32;3.20;;;;;;;20.68;100.00;100509.69;5586730;31;34304;-71
2023/07/07 00:30:17;;;;;;;5.47;3.33;;;;;;;20.66;100.00;100501.03;5587240;31;33708;-70
2023/07/07 00:33:19;;;;;;;4.60;2.97;;;;;;;20.65;100.00;100510.19;5587041;31;33599;-70
2023/07/07 00:36:23;;;;;;;5.53;3.28;;;;;;;20.66;100.00;100508.31;5587149;31;34358;-70
2023/07/07 00:39:26;;;;;;;4.75;3.08;;;;;;;20.62;100.00;100517.91;5587178;31;33738;-70
2023/07/07 00:42:28;;;;;;;5.75;3.22;;;;;;;20.61;100.00;100508.19;5586042;31;34508;-70
2023/07/07 00:45:31;;;;;;;5.80;3.25;;;;;;;20.59;100.00;100503.00;5586876;31;34811;-70
2023/07/07 00:48:44;;;;;;;5.07;3.10;;;;;;;20.60;100.00;100504.66;5586964;31;33645;-70
2023/07/07 00:51:49;;;;;;;5.32;3.22;;;;;;;20.59;100.00;100516.47;5586756;31;33667;-70
2023/07/07 00:54:54;;;;;;;5.82;3.33;;;;;;;20.61;100.00;100518.97;5586782;31;33827;-72
2023/07/07 00:58:03;;;;;;;7.45;3.55;;;;;;;20.58;100.00;100509.44;5586693;31;33671;-70
2023/07/07 01:01:12;;;;;;;5.13;3.13;;;;;;;20.54;100.00;100510.12;5586790;31;34648;-70
2023/07/07 01:04:17;;;;;;;5.28;3.10;;;;;;;20.49;100.00;100516.22;5586718;31;33945;-70
2023/07/07 01:07:29;;;;;;;4.70;3.40;;;;;;;20.47;100.00;100523.72;5586830;31;34353;-70
2023/07/07 01:10:32;;;;;;;4.20;3.12;;;;;;;20.44;100.00;100516.06;5586920;31;33767;-70
2023/07/07 01:13:36;;;;;;;5.12;3.10;;;;;;;20.38;100.00;100525.09;5586585;31;34489;-70
2023/07/07 01:16:57;;;;;;;3.85;2.97;;;;;;;20.36;100.00;100527.19;5586574;31;34941;-70
2023/07/07 01:20:22;;;;;;;5.60;3.40;;;;;;;20.34;100.00;100522.00;5585722;31;33707;-70
2023/07/07 01:23:46;;;;;;;5.37;3.37;;;;;;;20.37;100.00;100529.66;5586416;31;33955;-70
2023/07/07 01:27:21;;;;;;;7.43;3.35;;;;;;;20.31;100.00;100533.25;5586229;31;35264;-70
2023/07/07 01:30:52;;;;;;;4.70;3.30;;;;;;;20.28;100.00;100530.16;5586352;31;34269;-69
2023/07/07 01:33:55;;;;;;;6.43;3.15;;;;;;;20.23;100.00;100530.03;5586152;31;33773;-70
2023/07/07 01:36:58;;;;;;;7.37;3.40;;;;;;;20.19;100.00;100534.19;5586641;31;33840;-70
2023/07/07 01:40:03;;;;;;;5.97;3.50;;;;;;;20.18;100.00;100529.88;5586855;31;33997;-70
2023/07/07 01:43:13;;;;;;;4.82;3.40;;;;;;;20.15;100.00;100533.00;5588611;31;35002;-70
2023/07/07 01:46:22;;;;;;;4.80;3.28;;;;;;;20.07;100.00;100536.84;5588536;31;33674;-70
2023/07/07 01:49:45;;;;;;;5.22;3.58;;;;;;;20.00;100.00;100530.72;5588732;31;34630;-70
2023/07/07 01:52:56;;;;;;;5.32;3.55;;;;;;;19.99;100.00;100533.66;5588580;31;34924;-70
2023/07/07 01:56:00;;;;;;;4.72;3.70;;;;;;;19.92;100.00;100531.84;5588808;31;33818;-70
2023/07/07 01:59:05;;;;;;;7.37;3.42;;;;;;;19.87;100.00;100537.09;5588657;31;34104;-70
2023/07/07 02:02:09;;;;;;;5.97;3.62;;;;;;;19.79;100.00;100537.38;5588472;31;34283;-70
2023/07/07 02:05:12;;;;;;;4.85;3.60;;;;;;;19.82;100.00;100536.09;5587711;31;33728;-70
2023/07/07 02:08:16;;;;;;;6.75;3.70;;;;;;;19.80;100.00;100538.22;5588645;31;33774;-70
2023/07/07 02:11:19;;;;;;;6.05;3.40;;;;;;;19.77;100.00;100530.56;5588275;31;34331;-70
2023/07/07 02:14:22;;;;;;;6.07;3.53;;;;;;;19.71;100.00;100528.75;5588249;31;33849;-69
2023/07/07 02:17:26;;;;;;;6.32;4.00;;;;;;;19.72;100.00;100536.63;5588271;31;34498;-70
2023/07/07 02:20:30;;;;;;;6.57;3.50;;;;;;;19.67;100.00;100535.66;5588353;31;34872;-70
2023/07/07 02:23:33;;;;;;;5.68;3.60;;;;;;;19.61;100.00;100523.06;5588403;31;34200;-70
2023/07/07 02:26:36;;;;;;;6.70;3.75;;;;;;;19.66;100.00;100534.00;5588336;31;33691;-70
2023/07/07 02:29:38;;;;;;;6.97;3.62;;;;;;;19.68;100.00;100540.81;5588147;31;34101;-69
2023/07/07 02:32:41;;;;;;;6.20;3.55;;;;;;;19.71;100.00;100542.22;5588102;31;34520;-70
2023/07/07 02:35:48;;;;;;;6.28;3.80;;;;;;;19.59;100.00;100541.31;5587947;31;34559;-70
2023/07/07 02:38:55;;;;;;;6.50;3.70;;;;;;;19.58;100.00;100540.50;5588454;31;34613;-70
2023/07/07 02:41:57;;;;;;;6.97;3.78;;;;;;;19.64;100.00;100541.47;5588161;31;33667;-69
2023/07/07 02:45:00;;;;;;;5.72;3.75;;;;;;;19.56;100.00;100542.59;5588083;31;33822;-70
2023/07/07 02:48:04;;;;;;;7.60;3.80;;;;;;;19.51;100.00;100540.56;5587497;31;33798;-70
2023/07/07 02:51:07;;;;;;;4.82;3.80;;;;;;;19.51;100.00;100542.41;5587805;31;33748;-69
2023/07/07 02:54:09;;;;;;;5.68;3.40;;;;;;;19.49;100.00;100539.97;5587920;31;33921;-69
2023/07/07 02:57:12;;;;;;;6.12;3.67;;;;;;;19.45;100.00;100543.34;5587981;31;34916;-70
2023/07/07 03:00:15;;;;;;;7.37;3.72;;;;;;;19.42;100.00;100547.25;5587878;31;34049;-69
2023/07/07 03:03:19;;;;;;;7.57;3.95;;;;;;;19.48;100.00;100549.09;5587858;31;34785;-70
2023/07/07 03:06:23;;;;;;;5.90;3.95;;;;;;;19.47;100.00;100543.91;5587851;31;34040;-69
2023/07/07 03:09:26;;;;;;;6.03;4.00;;;;;;;19.41;100.00;100548.28;5587696;31;33869;-70
2023/07/07 03:12:29;;;;;;;7.10;3.80;;;;;;;19.31;100.00;100553.38;5587727;31;32581;-69
2023/07/07 03:15:40;;;;;;;6.45;4.10;;;;;;;19.39;100.00;100560.31;5587783;31;33760;-69
2023/07/07 03:18:43;;;;;;;8.02;4.12;;;;;;;19.35;100.00;100551.03;5587830;31;33859;-69
2023/07/07 03:21:46;;;;;;;8.40;4.30;;;;;;;19.43;100.00;100558.81;5587718;31;33934;-69
2023/07/07 03:24:51;;;;;;;6.00;3.95;;;;;;;19.37;100.00;100570.47;5586816;31;35374;-70
2023/07/07 03:27:55;;;;;;;6.03;3.80;;;;;;;19.19;100.00;100565.03;5586950;31;34617;-70
2023/07/07 03:31:16;;;;;;;6.97;3.80;;;;;;;19.20;100.00;100580.97;5587388;31;33964;-70
2023/07/07 03:34:20;;;;;;;6.37;3.67;;;;;;;19.16;100.00;100574.38;5586519;31;33931;-70
2023/07/07 03:37:22;;;;;;;9.27;4.18;;;;;;;19.17;100.00;100569.84;5587770;31;34311;-70
2023/07/07 03:40:25;;;;;;;8.02;3.90;;;;;;;19.17;100.00;100577.91;5587840;31;33547;-70
2023/07/07 03:43:33;;;;;;;8.40;4.05;;;;;;;19.18;100.00;100580.34;5586836;31;34279;-70
2023/07/07 03:46:36;;;;;;;5.28;3.60;;;;;;;19.21;100.00;100592.56;5587365;31;33638;-70
2023/07/07 03:49:39;;;;;;;7.00;3.80;;;;;;;19.25;100.00;100591.06;5587278;31;34389;-70
2023/07/07 03:52:42;;;;;;;5.87;3.72;;;;;;;19.36;100.00;100590.38;5587650;31;33534;-69
2023/07/07 03:55:45;;;;;;;7.30;4.10;;;;;;;19.35;100.00;100586.03;5587292;31;33921;-70
2023/07/07 03:58:48;;;;;;;8.10;3.65;;;;;;;19.44;100.00;100593.63;5587347;31;33634;-69
2023/07/07 04:01:51;;;;;;;7.97;3.67;;;;;;;19.37;100.00;100600.88;5586783;31;34060;-69
2023/07/07 04:04:54;;;;;;;5.85;3.50;;;;;;;19.33;100.00;100597.00;5587151;31;33948;-69
2023/07/07 04:07:57;;;;;;;7.60;4.22;;;;;;;19.29;100.00;100601.16;5587389;31;34419;-68
2023/07/07 04:11:06;;;;;;;6.03;3.85;;;;;;;19.26;100.00;100596.25;5587208;31;33854;-69
2023/07/07 04:14:09;;;;;;;7.75;3.80;;;;;;;19.17;100.00;100608.28;5587587;31;33814;-69
2023/07/07 04:17:12;;;;;;;11.48;3.58;;;;;;;19.17;100.00;100602.09;5587339;31;33667;-69
2023/07/07 04:20:14;;;;;;;7.40;3.65;;;;;;;19.25;100.00;100604.50;5587305;31;33705;-69
2023/07/07 04:23:17;;;;;;;6.85;3.92;;;;;;;19.32;100.00;100614.16;5587074;31;33867;-69
2023/07/07 04:26:21;;;;;;;9.52;3.85;;;;;;;19.38;100.00;100615.16;5586971;31;33493;-69
2023/07/07 04:29:24;;;;;;;7.53;4.10;;;;;;;19.49;100.00;100615.31;5586429;31;34383;-69
2023/07/07 04:32:27;;;;;;;8.63;3.83;;;;;;;19.65;100.00;100622.03;5587123;31;34213;-69
2023/07/07 04:35:34;;;;;;;13.65;4.12;;;;;;;19.82;100.00;100617.69;5586894;31;34562;-70
2023/07/07 04:38:36;;;;;;;8.82;3.95;;;;;;;20.16;100.00;100623.56;5586542;31;33808;-69
2023/07/07 04:41:39;;;;;;;7.22;4.03;;;;;;;20.36;100.00;100626.87;5586794;31;34307;-69
2023/07/07 04:44:42;;;;;;;7.05;3.62;;;;;;;20.33;100.00;100628.13;5586947;31;33592;-69
2023/07/07 04:47:45;;;;;;;7.75;4.20;;;;;;;20.13;100.00;100624.03;5586751;31;33846;-69
2023/07/07 04:50:48;;;;;;;6.35;3.70;;;;;;;20.23;100.00;100635.09;5586863;31;33842;-69
2023/07/07 04:53:51;;;;;;;7.75;3.90;;;;;;;19.98;100.00;100637.84;5586684;31;33703;-69
2023/07/07 04:56:54;;;;;;;6.12;3.80;;;;;;;19.87;100.00;100646.66;5586996;31;33809;-69
2023/07/07 04:59:57;;;;;;;7.15;3.70;;;;;;;20.06;100.00;100648.31;5586725;31;33933;-69
2023/07/07 05:02:59;;;;;;;8.93;3.65;;;;;;;20.23;100.00;100649.38;5586912;31;34433;-70
2023/07/07 05:06:03;;;;;;;9.13;3.87;;;;;;;20.12;100.00;100643.91;5586781;31;33755;-69
2023/07/07 05:09:08;;;;;;;8.30;3.95;;;;;;;20.10;100.00;100646.00;5586545;31;33724;-69
2023/07/07 05:12:11;;;;;;;7.70;3.92;;;;;;;20.21;100.00;100650.66;5586536;31;33857;-69
2023/07/07 05:15:13;;;;;;;8.10;3.85;;;;;;;20.21;100.00;100648.78;5586169;31;33858;-70
2023/07/07 05:18:16;;;;;;;5.43;3.85;;;;;;;20.22;100.00;100657.69;5586347;31;34144;-69
2023/07/07 05:21:21;;;;;;;7.90;3.60;;;;;;;20.45;100.00;100659.72;5586281;31;33902;-69
2023/07/07 05:24:24;;;;;;;6.00;4.10;;;;;;;20.46;100.00;100656.81;5586386;31;34591;-70
2023/07/07 05:27:27;;;;;;;10.32;4.30;;;;;;;20.67;100.00;100667.13;5586189;31;33810;-70
2023/07/07 05:30:30;;;;;;;6.82;4.07;;;;;;;20.82;100.00;100670.25;5586929;31;34081;-69
2023/07/07 05:33:33;;;;;;;9.52;4.10;;;;;;;20.76;100.00;100671.19;5583546;31;34138;-70
2023/07/07 05:36:37;;;;;;;7.50;3.95;;;;;;;20.95;100.00;100655.78;5575100;31;33711;-69
2023/07/07 05:39:39;;;;;;;7.93;4.10;;;;;;;20.65;100.00;100663.00;5585914;31;33824;-69
2023/07/07 05:42:42;;;;;;;5.82;3.78;;;;;;;20.68;96.31;100670.63;5585849;31;33733;-70
2023/07/07 05:45:45;;;;;;;12.65;4.82;;;;;;;20.66;95.08;100672.75;5579390;31;33933;-70
2023/07/07 05:48:48;;;;;;;10.38;4.40;;;;;;;20.48;96.34;100670.87;5571424;31;34531;-69
2023/07/07 05:51:50;;;;;;;9.27;4.22;;;;;;;20.35;97.33;100676.44;5565625;32;33604;-70
2023/07/07 05:54:53;;;;;;;8.10;4.05;;;;;;;20.31;100.00;100675.22;5566098;32;33674;-70
2023/07/07 05:57:56;;;;;;;8.02;3.70;;;;;;;20.39;100.00;100674.94;5566121;32;34188;-70
2023/07/07 06:00:59;;;;;;;8.77;3.95;;;;;;;20.48;100.00;100681.66;5577825;31;33962;-71
2023/07/07 06:04:03;;;;;;;8.82;4.10;;;;;;;20.82;100.00;100686.41;5564990;32;34070;-68
2023/07/07 06:07:07;;;;;;;5.32;3.70;;;;;;;20.80;100.00;100685.00;5570424;31;33695;-69
2023/07/07 06:10:10;;;;;;;7.62;4.07;;;;;;;20.74;100.00;100692.13;5574488;31;34105;-69
2023/07/07 06:13:13;;;;;;;12.15;4.28;;;;;;;20.67;100.00;100690.59;5578343;31;33843;-69
2023/07/07 06:16:17;;;;;;;7.55;4.32;;;;;;;20.91;100.00;100697.75;5569883;31;34411;-70
2023/07/07 06:19:20;;;;;;;8.98;4.05;;;;;;;21.11;100.00;100692.88;5565868;31;33797;-70
2023/07/07 06:22:23;;;;;;;7.93;4.07;;;;;;;21.62;100.00;100703.16;5584924;31;33551;-69
2023/07/07 06:25:25;;;;;;;9.13;3.75;;;;;;;21.74;94.91;100705.03;5579487;31;34515;-71
2023/07/07 06:28:30;;;;;;;9.75;4.20;;;;;;;21.99;91.08;100701.09;5587143;31;33548;-69
2023/07/07 06:31:32;;;;;;;6.72;4.15;;;;;;;22.31;91.47;100698.03;5586156;31;34034;-69
2023/07/07 06:34:35;;;;;;;8.57;4.40;;;;;;;22.32;82.02;100708.59;5587406;31;34028;-71
2023/07/07 06:37:38;;;;;;;11.12;4.72;;;;;;;21.99;80.59;100711.91;5588020;31;33796;-70
2023/07/07 06:40:41;;;;;;;7.97;4.22;;;;;;;21.90;79.53;100721.37;5574387;31;33665;-70
2023/07/07 06:43:43;;;;;;;8.50;4.50;;;;;;;21.87;80.89;100715.63;5580248;31;34899;-70
2023/07/07 06:46:47;;;;;;;6.10;4.00;;;;;;;22.16;74.47;100719.31;5568239;32;33781;-70
2023/07/07 06:49:49;;;;;;;9.80;4.40;;;;;;;22.47;71.50;100729.75;5580525;31;33891;-70
2023/07/07 06:52:52;;;;;;;7.72;4.10;;;;;;;22.47;68.38;100721.63;5567833;32;34652;-69
2023/07/07 06:55:55;;;;;;;9.27;4.28;;;;;;;22.30;66.01;100723.41;5570752;31;33886;-71
2023/07/07 06:58:57;;;;;;;5.60;3.83;;;;;;;22.38;66.38;100723.06;5580748;31;33823;-70
2023/07/07 07:02:00;;;;;;;12.88;4.40;;;;;;;22.94;63.87;100720.50;5569880;31;33611;-71
2023/07/07 07:05:03;;;;;;;9.88;4.50;;;;;;;23.20;62.86;100726.38;5569224;31;34026;-71
2023/07/07 07:08:06;;;;;;;9.73;4.28;;;;;;;23.17;59.88;100737.72;5571207;31;34579;-71
2023/07/07 07:11:09;;;;;;;7.28;4.07;;;;;;;23.06;60.69;100733.16;5569241;31;33929;-71
2023/07/07 07:14:11;;;;;;;9.65;4.20;;;;;;;22.89;61.75;100736.66;5569626;31;33135;-71
2023/07/07 07:17:14;;;;;;;12.90;4.20;;;;;;;22.81;62.00;100734.28;5567716;31;34618;-70
2023/07/07 07:20:17;;;;;;;11.20;3.78;;;;;;;23.63;60.30;100734.78;5586338;31;34477;-72
2023/07/07 07:23:21;;;;;;;8.65;4.40;;;;;;;23.69;59.82;100741.13;5580043;31;34695;-69
2023/07/07 07:26:23;;;;;;;9.27;4.05;;;;;;;24.15;58.37;100740.81;5577965;31;34354;-71
2023/07/07 07:29:26;;;;;;;12.37;4.03;;;;;;;24.61;58.56;100742.28;5577985;31;33756;-71
2023/07/07 07:32:29;;;;;;;8.60;3.70;;;;;;;24.58;56.06;100747.41;5570219;31;33672;-71
2023/07/07 07:35:32;;;;;;;7.05;3.62;;;;;;;24.38;57.07;100749.81;5567254;32;34698;-71
2023/07/07 07:38:35;;;;;;;6.45;3.92;;;;;;;24.59;57.63;100746.34;5566503;32;33683;-72
2023/07/07 07:41:38;;;;;;;9.73;3.75;;;;;;;24.38;55.57;100752.53;5570556;31;33969;-72
2023/07/07 07:44:40;;;;;;;8.95;4.15;;;;;;;24.38;55.71;100761.50;5567875;32;33870;-70
2023/07/07 07:47:46;;;;;;;5.95;3.85;;;;;;;25.28;53.95;100760.19;5567581;32;34643;-71
2023/07/07 07:50:49;;;;;;;7.20;4.00;;;;;;;26.38;50.00;100754.16;5569797;31;232486;-70
2023/07/07 07:53:52;;;;;;;9.15;4.07;;;;;;;26.38;49.98;100759.59;5586209;31;34775;-70
2023/07/07 07:56:54;;;;;;;6.05;3.78;;;;;;;27.13;47.20;100758.31;5587040;31;33876;-71
2023/07/07 07:59:57;;;;;;;7.25;3.90;;;;;;;26.77;48.82;100763.59;5586876;31;35239;-71
2023/07/07 08:03:01;;;;;;;7.62;3.92;;;;;;;27.58;46.56;100763.91;5579710;31;33807;-71
2023/07/07 08:06:06;;;;;;;6.10;4.00;;;;;;;26.21;46.48;100759.75;5587007;31;34117;-70
2023/07/07 08:09:09;;;;;;;14.30;4.03;;;;;;;27.93;44.55;100759.56;5585160;31;34451;-70
2023/07/07 08:12:12;;;;;;;8.52;3.53;;;;;;;28.66;42.90;100763.53;5585901;31;33827;-72
2023/07/07 08:15:15;;;;;;;7.87;4.07;;;;;;;28.21;42.62;100769.13;5586856;31;34117;-72
2023/07/07 08:18:18;;;;;;;7.32;3.67;;;;;;;27.83;43.34;100765.84;5586954;31;33523;-72
2023/07/07 08:21:20;;;;;;;6.22;3.67;;;;;;;28.47;42.28;100766.06;5585673;31;34128;-71
2023/07/07 08:24:24;;;;;;;14.82;3.80;;;;;;;29.13;40.26;100765.03;5586448;31;33692;-72
2023/07/07 08:27:27;;;;;;;6.70;3.90;;;;;;;29.21;38.98;100773.44;5584722;31;33638;-70
2023/07/07 08:30:33;;;;;;;10.25;3.87;;;;;;;29.66;37.22;100769.63;5573324;31;34471;-70
2023/07/07 08:33:36;;;;;;;8.32;3.40;;;;;;;30.01;37.57;100773.22;5587031;31;33948;-71
2023/07/07 08:36:42;;;;;;;6.32;3.87;;;;;;;27.97;39.31;100760.66;5586437;31;32381;-69
2023/07/07 08:39:46;;;;;;;10.45;4.05;;;;;;;26.84;40.61;100763.34;5585929;31;34214;-71
2023/07/07 08:42:49;;;;;;;7.22;3.45;;;;;;;26.63;42.55;100777.94;5585833;31;34061;-72
2023/07/07 08:45:59;;;;;;;9.10;3.90;;;;;;;27.06;40.91;100769.47;5585493;31;33730;-71
2023/07/07 08:49:12;;;;;;;5.03;3.72;;;;;;;27.54;39.48;100781.91;5584990;31;33615;-71
2023/07/07 08:52:43;;;;;;;9.75;4.07;;;;;;;29.67;35.26;100784.12;5583076;31;33861;-72
2023/07/07 08:56:10;;;;;;;9.23;3.97;;;;;;;28.97;35.90;100780.66;5581458;31;33981;-70
2023/07/07 08:59:32;;;;;;;12.40;3.85;;;;;;;30.53;33.40;100777.94;5574587;31;33920;-71
2023/07/07 09:02:57;;;;;;;5.43;3.75;;;;;;;30.34;33.10;100787.97;5566509;32;34011;-72
2023/07/07 09:06:14;;;;;;;8.05;3.97;;;;;;;29.75;35.03;100792.53;5566848;32;33914;-71
2023/07/07 09:09:52;;;;;;;6.25;3.62;;;;;;;27.12;38.79;100776.56;5565700;32;34998;-71
2023/07/07 09:13:06;;;;;;;6.72;3.65;;;;;;;27.30;39.36;100779.91;5566506;32;34631;-71
2023/07/07 09:16:15;;;;;;;11.48;3.85;;;;;;;29.67;35.23;100790.41;5566488;32;34873;-71
2023/07/07 09:19:29;;;;;;;9.27;3.75;;;;;;;30.55;33.95;100787.47;5566440;32;34555;-70
2023/07/07 09:22:49;;;;;;;5.55;3.50;;;;;;;31.23;32.61;100794.62;5566465;32;34602;-67
2023/07/07 09:26:06;;;;;;;9.32;3.60;;;;;;;29.48;34.59;100788.63;5567809;31;33912;-71
2023/07/07 09:29:19;;;;;;;12.30;3.50;;;;;;;29.52;36.14;100789.69;5578521;31;32437;-71
2023/07/07 09:32:22;;;;;;;7.87;3.53;;;;;;;32.91;30.12;100790.75;5578959;31;34181;-72
2023/07/07 09:35:31;;;;;;;5.25;3.30;;;;;;;32.69;30.04;100785.97;5580323;31;33826;-69
2023/07/07 09:38:49;;;;;;;6.70;3.92;;;;;;;32.23;29.34;100781.31;5584026;31;33834;-71
2023/07/07 09:42:11;;;;;;;6.47;3.78;;;;;;;32.28;30.10;100786.72;5586883;31;34256;-71
2023/07/07 09:45:13;;;;;;;5.87;3.70;;;;;;;33.50;28.02;100787.00;5585594;31;34658;-71
2023/07/07 09:48:22;;;;;;;4.90;3.25;;;;;;;34.51;26.48;100787.22;5581511;31;33567;-71
2023/07/07 09:51:37;;;;;;;12.32;3.67;;;;;;;35.24;26.74;100791.22;5573817;31;33621;-70
2023/07/07 09:54:42;;;;;;;5.15;3.53;;;;;;;35.37;26.23;100786.69;5572080;31;33898;-71
2023/07/07 09:57:58;;;;;;;11.82;3.50;;;;;;;34.64;27.13;100791.81;5573744;31;33880;-71
2023/07/07 10:01:03;;;;;;;8.52;3.67;;;;;;;34.63;26.99;100798.44;5576440;31;33946;-70
2023/07/07 10:04:15;;;;;;;8.32;3.70;;;;;;;33.30;27.77;100791.03;5581561;31;33765;-70
2023/07/07 10:07:20;;;;;;;12.90;3.90;;;;;;;33.01;29.37;100788.59;5577408;31;34855;-69
2023/07/07 10:10:27;;;;;;;8.00;3.60;;;;;;;34.46;27.51;100784.59;5572003;31;33290;-71
2023/07/07 10:13:30;;;;;;;6.85;3.75;;;;;;;35.90;25.51;100780.84;5585612;31;33954;-70
2023/07/07 10:16:33;;;;;;;12.80;3.40;;;;;;;36.10;25.25;100782.91;5586550;31;33813;-70
2023/07/07 10:19:45;;;;;;;7.00;3.53;;;;;;;32.81;28.72;100785.47;5578236;31;33888;-71
2023/07/07 10:22:48;;;;;;;7.93;3.50;;;;;;;34.25;27.06;100789.84;5576517;31;33588;-71
2023/07/07 10:25:51;;;;;;;6.45;3.60;;;;;;;35.10;25.97;100793.28;5578382;31;33928;-71
2023/07/07 10:29:00;;;;;;;6.10;3.55;;;;;;;34.65;25.76;100792.63;5567821;32;33720;-70
2023/07/07 10:32:03;;;;;;;6.12;3.45;;;;;;;36.35;24.41;100787.59;5571107;31;34474;-71
2023/07/07 10:35:07;;;;;;;6.18;3.80;;;;;;;36.97;23.70;100787.81;5583477;31;33871;-69
2023/07/07 10:38:11;;;;;;;5.60;3.35;;;;;;;32.88;28.57;100789.41;5587007;31;34341;-70
2023/07/07 10:41:14;;;;;;;5.07;3.50;;;;;;;30.70;31.10;100789.22;5567706;31;34115;-70
2023/07/07 10:44:17;;;;;;;9.38;3.70;;;;;;;31.99;29.38;100780.63;5573630;31;33844;-70
2023/07/07 10:47:24;;;;;;;7.87;4.00;;;;;;;32.70;28.40;100782.91;5574185;31;33971;-69
2023/07/07 10:50:30;;;;;;;9.35;3.80;;;;;;;33.79;27.67;100776.37;5567507;31;33368;-70
2023/07/07 10:53:39;;;;;;;5.93;3.70;;;;;;;33.82;28.41;100785.97;5576813;31;33801;-69
2023/07/07 10:56:45;;;;;;;5.70;3.28;;;;;;;33.58;28.41;100772.50;5585000;31;33535;-68
2023/07/07 11:00:00;;;;;;;6.00;3.60;;;;;;;34.78;26.98;100776.00;5583083;31;33653;-70
2023/07/07 11:03:29;;;;;;;7.40;3.58;;;;;;;34.52;27.54;100775.06;5586854;31;33524;-72
2023/07/07 11:06:49;;;;;;;7.25;3.53;;;;;;;35.10;25.40;100766.50;5587342;31;33097;-70
2023/07/07 11:10:01;;;;;;;7.00;3.62;;;;;;;36.41;25.17;100771.63;5573131;31;33735;-70
2023/07/07 11:13:08;;;;;;;4.75;3.25;;;;;;;37.51;24.46;100771.31;5569275;31;35219;-71
2023/07/07 11:16:28;;;;;;;5.60;3.67;;;;;;;40.37;20.32;100767.78;5568164;32;34129;-70
2023/07/07 11:19:47;;;;;;;5.97;3.45;;;;;;;41.60;19.17;100771.84;5581974;31;33775;-72
2023/07/07 11:22:58;;;;;;;7.25;3.78;;;;;;;39.49;21.04;100766.16;5585739;31;33814;-71
2023/07/07 11:26:09;;;;;;;6.28;3.90;;;;;;;36.52;23.60;100753.53;5587523;31;33668;-72
2023/07/07 11:29:39;;;;;;;7.53;3.20;;;;;;;38.93;21.59;100765.19;5585845;31;33762;-71
2023/07/07 11:33:07;;;;;;;7.62;3.33;;;;;;;39.36;20.61;100768.13;5583223;31;33525;-67
2023/07/07 11:36:44;;;;;;;5.45;3.60;;;;;;;35.69;24.46;100755.84;5582304;31;33777;-69
2023/07/07 11:40:12;;;;;;;6.85;3.47;;;;;;;39.29;21.84;100765.13;5571861;31;34895;-69
2023/07/07 11:43:34;;;;;;;9.40;3.35;;;;;;;35.16;25.85;100756.13;5567547;31;33612;-68
2023/07/07 11:47:03;;;;;;;10.10;3.22;;;;;;;35.91;25.38;100763.13;5571609;31;34197;-68
2023/07/07 11:50:29;;;;;;;5.10;3.40;;;;;;;34.59;26.91;100756.13;5566985;32;32500;-69
2023/07/07 11:53:51;;;;;;;4.90;3.08;;;;;;;33.65;28.04;100756.34;5567318;32;34781;-69
2023/07/07 11:57:26;;;;;;;5.22;3.08;;;;;;;32.12;29.75;100746.09;5567222;32;33823;-68
2023/07/07 12:00:48;;;;;;;8.18;3.47;;;;;;;32.75;29.88;100758.09;5546433;31;34544;-69
2023/07/07 12:03:58;;;;;;;8.18;3.35;;;;;;;32.61;29.56;100746.25;5578068;31;33654;-69
2023/07/07 12:07:11;;;;;;;6.18;3.05;;;;;;;33.70;28.28;100753.50;5587202;31;33681;-70
2023/07/07 12:10:22;;;;;;;5.00;3.40;;;;;;;36.50;25.59;100750.31;5601802;31;33501;-70
2023/07/07 12:13:30;;;;;;;5.85;3.30;;;;;;;36.34;24.41;100752.81;5580300;31;34531;-69
2023/07/07 12:16:34;;;;;;;;;;;;;;;38.50;22.44;100749.94;5597141;31;34532;-66
2023/07/07 12:19:45;;;;;;;7.00;3.47;;;;;;;37.39;23.61;100749.91;5587661;31;34271;-69
2023/07/07 12:22:50;;;;;;;6.97;3.42;;;;;;;36.42;24.13;100749.19;5587512;31;34644;-69
2023/07/07 12:25:53;;;;;;;4.72;3.17;;;;;;;36.31;24.88;100747.12;5586177;31;33910;-69
2023/07/07 12:29:00;;;;;;;5.40;3.08;;;;;;;38.20;23.09;100752.06;5586875;31;33724;-68
2023/07/07 12:32:03;;;;;;;6.53;3.05;;;;;;;37.31;23.95;100744.47;5586918;31;33798;-69
2023/07/07 12:35:13;;;;;;;5.35;3.08;;;;;;;38.87;22.57;100747.16;5578192;31;34674;-69
2023/07/07 12:38:29;;;;;;;7.07;3.08;;;;;;;41.66;19.97;100745.31;5567231;32;33855;-67
2023/07/07 12:41:32;;;;;;;6.25;3.00;;;;;;;39.70;20.62;100738.16;5567310;32;33614;-70
2023/07/07 12:44:34;;;;;;;8.27;3.12;;;;;;;41.01;20.33;100738.72;5578001;31;33594;-68
2023/07/07 12:47:41;;;;;;;5.68;3.35;;;;;;;39.19;21.53;100731.50;5586799;31;33821;-70
2023/07/07 12:50:45;;;;;;;5.60;3.05;;;;;;;37.49;22.83;100725.75;5586487;31;33756;-68
2023/07/07 12:53:53;;;;;;;6.25;3.30;;;;;;;37.31;23.06;100731.44;5586470;31;34034;-70
2023/07/07 12:57:18;;;;;;;8.52;3.28;;;;;;;38.33;22.29;100733.53;5586717;31;33900;-69
2023/07/07 13:00:47;;;;;;;5.90;3.35;;;;;;;37.74;23.04;100721.94;5586700;31;33492;-69
2023/07/07 13:04:05;;;;;;;7.12;3.15;;;;;;;41.53;19.54;100719.59;5584101;31;34681;-68
2023/07/07 13:07:19;;;;;;;4.65;3.08;;;;;;;42.94;18.16;100717.63;5586475;31;34474;-69
2023/07/07 13:10:33;;;;;;;7.93;3.30;;;;;;;38.84;21.61;100720.91;5586195;31;33615;-67
2023/07/07 13:13:38;;;;;;;7.05;3.20;;;;;;;41.43;19.01;100731.31;5586435;31;33929;-70
2023/07/07 13:16:40;;;;;;;5.32;3.08;;;;;;;36.01;23.68;100716.66;5583044;31;34454;-70
2023/07/07 13:19:57;;;;;;;7.28;3.12;;;;;;;38.34;21.04;100718.50;5585293;31;32222;-71
2023/07/07 13:23:16;;;;;;;5.37;3.12;;;;;;;38.52;20.87;100719.94;5586396;31;33760;-69
2023/07/07 13:26:28;;;;;;;6.82;3.22;;;;;;;38.12;21.11;100718.94;5585161;31;34341;-69
2023/07/07 13:29:38;;;;;;;5.25;3.03;;;;;;;40.44;19.11;100720.69;5580263;31;34949;-69
2023/07/07 13:32:42;;;;;;;5.75;2.75;;;;;;;38.18;21.02;100723.91;5575680;31;33844;-68
2023/07/07 13:35:58;;;;;;;5.57;2.83;;;;;;;39.48;20.00;100711.75;5567155;31;33606;-69
2023/07/07 13:39:01;;;;;;;5.75;3.10;;;;;;;39.30;20.20;100721.53;5565178;32;34650;-68
2023/07/07 13:42:05;;;;;;;8.57;3.17;;;;;;;39.13;19.97;100722.63;5576432;31;33648;-69
2023/07/07 13:45:16;;;;;;;4.72;3.08;;;;;;;40.53;19.45;100712.94;5597225;31;33923;-69
2023/07/07 13:48:25;;;;;;;4.72;2.97;;;;;;;39.35;19.69;100712.97;5588017;31;33446;-70
2023/07/07 13:51:31;;;;;;;6.30;3.25;;;;;;;39.47;19.79;100710.94;5582903;31;34094;-71
2023/07/07 13:54:34;;;;;;;6.55;2.83;;;;;;;37.43;21.33;100716.84;5587084;31;33665;-68
2023/07/07 13:57:38;;;;;;;4.07;2.85;;;;;;;38.19;20.79;100710.88;5584563;31;35145;-69
2023/07/07 14:00:46;;;;;;;7.57;2.97;;;;;;;40.29;18.65;100710.38;5580304;31;33763;-71
2023/07/07 14:03:56;;;;;;;5.87;2.65;;;;;;;41.56;18.17;100707.72;5585251;31;33647;-68
2023/07/07 14:07:13;;;;;;;5.75;2.45;;;;;;;43.30;16.62;100707.72;5580913;31;33928;-69
2023/07/07 14:10:36;;;;;;;;;;;;;;;39.32;20.32;100700.59;5577564;31;33662;-68
2023/07/07 14:13:41;;;;;;;6.75;2.95;;;;;;;39.76;19.25;100704.22;5581095;31;34116;-69
2023/07/07 14:16:49;;;;;;;7.55;3.05;;;;;;;40.11;19.80;100701.56;5587721;31;34147;-71
2023/07/07 14:20:07;;;;;;;8.00;3.20;;;;;;;40.90;19.04;100710.66;5573508;31;34732;-68
2023/07/07 14:23:12;;;;;;;7.57;2.90;;;;;;;39.99;19.26;100704.44;5582887;31;34265;-70
2023/07/07 14:26:20;;;;;;;5.25;2.75;;;;;;;38.57;20.18;100707.78;5573944;31;33640;-68
2023/07/07 14:29:38;;;;;;;3.60;2.67;;;;;;;37.23;21.75;100709.38;5579558;31;33969;-69